Belknap, Illinois
Current Conditions -  °F | °C
As of 1:55 PM on Wednesday 17 Dec 2014 (Local Time) from KM30 Reporting Station
Clear Clear  
Wind Chill: 39°   Ceiling: Unl
Heat Index: 39°   Visibility: 10mi
Dew Point: 29°   Wind: 3mph
Humidity: 66%   Direction: 250°WSW
Pressure: 30.26"   Gusts: NA
Location:  37.33°N, 88.94°W
Report Text: KM30 171955Z AUTO 25003KT 10SM CLR 04/M02 A3026 RMK AO2 T00391019
Loading
Personal Weather Stations






























Interactive Weather Map New forecast layout! Learn more

10-Day Weather Forecast

Advertisements
Track Severe Weather on mobile